Time;durP1;ratioP1;P1;durP2;ratioP2;P2;SDS_P1;SDS_P2;PMS_P1;PMS_P2;Temp;Humidity;BMP_temperature;BMP_pressure;BME280_temperature;BME280_humidity;BME280_pressure;Samples;Min_cycle;Max_cycle;Signal;HPM_P1;HPM_P2
2022/04/08 00:01:16;;;;;;;5.77;2.00;;;14.00;96.90;;;13.57;49.83;99289.47;4810104;28;121494;-62
2022/04/08 00:03:42;;;;;;;6.30;2.10;;;13.70;97.50;;;13.65;49.49;99289.78;4802641;28;108033;-63
2022/04/08 00:06:08;;;;;;;5.10;1.67;;;13.70;97.40;;;13.77;49.33;99296.88;4809005;28;97234;-62
2022/04/08 00:08:34;;;;;;;5.13;1.90;;;13.90;97.20;;;13.77;49.21;99296.88;4806002;28;96828;-62
2022/04/08 00:11:00;;;;;;;4.87;2.27;;;13.80;97.50;;;13.43;48.73;99310.75;4807982;28;103117;-63
2022/04/08 00:13:26;;;;;;;6.13;1.90;;;13.50;96.80;;;13.38;49.23;99303.13;4809324;28;97229;-62
2022/04/08 00:15:52;;;;;;;4.77;1.40;;;13.50;97.50;;;13.04;50.05;99312.50;4805240;28;98264;-62
2022/04/08 00:18:19;;;;;;;6.30;1.80;;;13.20;97.70;;;13.27;50.73;99317.09;4807322;28;124804;-62
2022/04/08 00:20:45;;;;;;;6.83;2.00;;;13.30;98.40;;;13.05;50.13;99314.19;4803216;28;97074;-62
2022/04/08 00:23:11;;;;;;;5.47;1.80;;;13.30;97.70;;;12.80;50.88;99326.38;4805237;29;97006;-62
2022/04/08 00:25:37;;;;;;;4.43;1.60;;;13.00;98.10;;;13.13;50.71;99322.44;4802454;28;123329;-62
2022/04/08 00:28:03;;;;;;;4.47;1.40;;;13.30;98.50;;;13.10;50.73;99327.94;4808278;28;97620;-62
2022/04/08 00:30:29;;;;;;;4.17;1.70;;;13.30;98.10;;;13.38;50.27;99340.22;4803097;28;97123;-66
2022/04/08 00:32:59;;;;;;;3.17;1.80;;;13.50;98.30;;;13.32;50.48;99349.44;4807744;28;97243;-62
2022/04/08 00:35:25;;;;;;;4.43;1.37;;;13.50;97.90;;;13.18;50.61;99341.56;4806743;28;97535;-63
2022/04/08 00:37:52;;;;;;;2.00;1.13;;;13.40;97.90;;;13.01;50.36;99344.44;4817762;28;97271;-65
2022/04/08 00:40:18;;;;;;;1.70;1.10;;;13.20;97.60;;;12.73;51.17;99353.31;4806891;28;101504;-62
2022/04/08 00:42:44;;;;;;;3.13;1.13;;;13.00;98.20;;;12.76;49.77;99351.34;4812590;28;108836;-62
2022/04/08 00:45:10;;;;;;;1.87;1.00;;;13.00;97.40;;;12.73;51.29;99356.84;4806799;29;97314;-62
2022/04/08 00:47:40;;;;;;;2.47;0.93;;;13.00;98.10;;;12.58;51.20;99362.25;4800957;28;118788;-62
2022/04/08 00:50:08;;;;;;;2.63;1.00;;;12.80;98.20;;;12.98;51.16;99355.22;4806773;28;97557;-62
2022/04/08 00:52:35;;;;;;;2.93;1.10;;;13.00;98.60;;;12.73;49.63;99366.56;4802548;28;97491;-62
2022/04/08 00:55:06;;;;;;;3.10;0.97;;;13.00;97.20;;;12.68;49.43;99388.03;4808695;29;101017;-63
2022/04/08 00:57:32;;;;;;;3.50;1.17;;;12.90;97.20;;;12.60;51.81;99365.69;4816403;28;97105;-63
2022/04/08 01:00:04;;;;;;;3.50;0.83;;;12.70;98.60;;;12.58;51.30;99381.63;4819171;29;97418;-62
2022/04/08 01:02:31;;;;;;;2.50;0.73;;;12.70;98.40;;;12.74;50.98;99385.00;4818932;28;96979;-64
2022/04/08 01:04:58;;;;;;;4.20;1.60;;;12.70;98.60;;;12.34;50.24;99381.41;4825200;28;98068;-62
2022/04/08 01:07:23;;;;;;;1.60;0.90;;;12.50;97.80;;;12.47;49.75;99389.41;4819983;28;121364;-63
2022/04/08 01:09:52;;;;;;;3.97;1.00;;;12.50;97.60;;;12.39;51.58;99394.31;4816653;28;96735;-63
2022/04/08 01:12:18;;;;;;;2.93;1.00;;;12.40;99.10;;;12.72;50.23;99392.16;4822922;29;96993;-62
2022/04/08 01:14:44;;;;;;;1.83;0.80;;;12.70;98.20;;;12.35;49.51;99408.69;4815504;28;98005;-61
2022/04/08 01:17:10;;;;;;;2.03;0.70;;;12.60;97.20;;;12.55;51.32;99405.63;4826615;29;97209;-63
2022/04/08 01:19:36;;;;;;;3.97;1.23;;;12.60;98.60;;;12.60;51.66;99398.28;4818018;28;97276;-62
2022/04/08 01:22:03;;;;;;;3.30;0.80;;;12.70;98.40;;;12.21;50.98;99413.03;4818752;29;117518;-63
2022/04/08 01:24:35;;;;;;;3.43;0.80;;;12.40;98.10;;;12.23;50.27;99434.09;4813914;28;99063;-67
2022/04/08 01:27:02;;;;;;;4.00;0.93;;;12.40;98.50;;;12.18;51.92;99434.38;4822138;29;101271;-63
2022/04/08 01:29:28;;;;;;;4.30;1.07;;;12.30;98.80;;;12.37;50.41;99433.22;4823657;28;97000;-67
2022/04/08 01:31:54;;;;;;;5.10;1.10;;;12.50;98.10;;;12.43;51.65;99432.84;4824830;28;96916;-63
2022/04/08 01:34:20;;;;;;;3.70;1.10;;;12.40;98.80;;;12.26;50.43;99431.25;4811727;28;96863;-63
2022/04/08 01:36:46;;;;;;;5.23;1.10;;;12.40;97.60;;;12.33;50.53;99437.03;4816719;28;123081;-62
2022/04/08 01:39:11;;;;;;;5.53;1.37;;;12.30;98.30;;;12.48;50.76;99436.91;4821503;29;122578;-63
2022/04/08 01:41:37;;;;;;;3.13;1.23;;;12.50;98.10;;;12.43;50.17;99459.28;4818947;28;96937;-63
2022/04/08 01:44:03;;;;;;;4.70;0.93;;;12.60;98.00;;;12.52;50.51;99459.56;4820849;28;118580;-63
2022/04/08 01:46:28;;;;;;;5.37;1.20;;;12.60;97.80;;;12.68;49.78;99448.03;4849293;28;106946;-68
2022/04/08 01:48:55;;;;;;;8.93;1.93;;;12.80;97.80;;;12.51;51.31;99457.03;4816521;28;97209;-62
2022/04/08 01:51:24;;;;;;;3.73;1.50;;;12.60;98.40;;;12.40;50.88;99457.69;4826100;28;97070;-62
2022/04/08 01:53:50;;;;;;;6.63;1.47;;;12.50;98.20;;;12.78;50.73;99463.22;4819745;28;97694;-62
2022/04/08 01:56:16;;;;;;;8.83;1.87;;;12.70;98.80;;;13.03;49.17;99459.88;4823671;28;97118;-63
2022/04/08 01:58:42;;;;;;;6.70;1.77;;;13.10;97.20;;;13.25;49.64;99475.22;4820217;28;97713;-63
2022/04/08 02:01:07;;;;;;;5.00;1.17;;;13.30;97.80;;;13.09;49.64;99477.16;4823778;28;98166;-63
2022/04/08 02:03:33;;;;;;;4.77;1.50;;;13.10;97.60;;;13.03;49.00;99485.50;4820379;28;98688;-62
2022/04/08 02:06:00;;;;;;;3.87;1.23;;;13.10;96.90;;;13.26;50.07;99479.56;4821187;28;114225;-62
2022/04/08 02:08:26;;;;;;;5.17;1.43;;;13.20;98.10;;;13.14;47.96;99482.97;4803510;29;97071;-62
2022/04/08 02:10:54;;;;;;;6.20;1.77;;;13.30;96.10;;;13.12;50.36;99479.59;4817396;28;97136;-62
2022/04/08 02:13:20;;;;;;;6.60;1.93;;;13.20;97.90;;;13.30;49.46;99491.66;4823618;28;97426;-62
2022/04/08 02:15:46;;;;;;;4.57;1.80;;;13.30;97.40;;;13.38;48.64;99496.47;4819814;28;109727;-63
2022/04/08 02:18:13;;;;;;;3.07;1.10;;;13.40;96.90;;;13.17;47.98;99489.91;4816378;28;96890;-63
2022/04/08 02:20:39;;;;;;;4.00;1.00;;;13.30;96.40;;;13.24;48.74;99491.22;4815887;28;97130;-62
2022/04/08 02:23:05;;;;;;;6.83;2.17;;;13.30;97.10;;;13.53;48.81;99513.16;4821460;28;119409;-63
2022/04/08 02:25:31;;;;;;;4.73;1.40;;;13.50;97.30;;;13.23;49.28;99502.75;4819987;28;114684;-63
2022/04/08 02:27:57;;;;;;;5.67;1.90;;;13.30;97.00;;;13.31;49.38;99505.78;4818603;29;96776;-63
2022/04/08 02:30:23;;;;;;;6.27;1.73;;;13.20;97.30;;;13.25;47.39;99507.00;4819450;29;96738;-63
2022/04/08 02:32:49;;;;;;;5.03;1.87;;;13.20;97.00;;;12.92;49.56;99520.56;4828376;28;114935;-63
2022/04/08 02:35:15;;;;;;;7.47;2.27;;;12.90;97.30;;;12.68;48.87;99506.22;4816927;28;97187;-63
2022/04/08 02:37:41;;;;;;;5.33;2.00;;;12.60;97.00;;;12.66;50.08;99514.25;4819495;28;97368;-63
2022/04/08 02:40:07;;;;;;;5.07;1.83;;;12.60;98.20;;;13.01;50.60;99514.69;4819644;29;97263;-63
2022/04/08 02:42:33;;;;;;;4.03;1.53;;;12.90;98.60;;;13.30;50.24;99504.06;4822131;28;97513;-63
2022/04/08 02:44:59;;;;;;;5.87;2.03;;;13.20;98.40;;;13.52;49.29;99524.69;4820124;28;96621;-62
2022/04/08 02:47:25;;;;;;;3.73;1.30;;;13.50;97.40;;;13.58;48.26;99519.84;4822558;28;97422;-63
2022/04/08 02:49:51;;;;;;;4.63;1.90;;;13.80;96.70;;;13.80;48.75;99518.44;4812829;28;96993;-62
2022/04/08 02:52:17;;;;;;;3.03;1.90;;;13.90;97.10;;;13.91;47.38;99526.53;4821886;28;99674;-63
2022/04/08 02:54:42;;;;;;;3.67;1.50;;;14.00;95.80;;;13.95;47.71;99531.50;4814169;28;97488;-63
2022/04/08 02:57:08;;;;;;;5.73;2.37;;;14.10;96.20;;;13.93;47.52;99525.47;4824077;28;104771;-63
2022/04/08 02:59:34;;;;;;;4.57;1.93;;;14.20;95.80;;;14.15;47.79;99539.91;4814025;28;100611;-63
2022/04/08 03:02:00;;;;;;;7.60;2.30;;;14.30;96.50;;;13.96;46.27;99530.56;4802295;29;100785;-63
2022/04/08 03:04:26;;;;;;;3.20;2.23;;;14.20;94.80;;;14.13;47.80;99531.22;4820021;28;97128;-63
2022/04/08 03:06:53;;;;;;;6.03;2.57;;;14.10;96.60;;;14.30;46.96;99539.72;4820324;28;97033;-63
2022/04/08 03:09:19;;;;;;;5.97;2.33;;;14.40;95.70;;;14.34;47.03;99535.06;4820888;28;97114;-63
2022/04/08 03:11:45;;;;;;;6.50;3.40;;;14.40;95.60;;;14.37;45.54;99524.22;4818625;28;98428;-63
2022/04/08 03:14:11;;;;;;;7.30;2.57;;;14.30;94.80;;;14.30;47.14;99533.56;4824108;28;123165;-63
2022/04/08 03:16:36;;;;;;;4.93;2.40;;;14.20;96.10;;;14.30;46.39;99538.84;4818827;28;97163;-63
2022/04/08 03:19:02;;;;;;;9.20;2.93;;;14.30;95.30;;;14.22;47.08;99533.25;4819437;28;114697;-63
2022/04/08 03:21:30;;;;;;;6.87;2.90;;;14.20;95.90;;;14.40;46.50;99529.31;4821848;28;96752;-63
2022/04/08 03:23:57;;;;;;;7.17;3.20;;;14.50;95.60;;;14.50;46.94;99533.06;4816836;28;101734;-62
2022/04/08 03:26:23;;;;;;;5.20;1.80;;;14.50;95.50;;;14.65;46.47;99543.56;4823464;29;96693;-63
2022/04/08 03:28:49;;;;;;;5.30;2.23;;;14.60;95.70;;;14.63;46.79;99529.56;4820363;28;97089;-63
2022/04/08 03:31:16;;;;;;;6.83;3.23;;;14.70;95.30;;;14.64;46.47;99541.88;4824987;28;97320;-63
2022/04/08 03:33:42;;;;;;;4.53;2.80;;;14.70;94.80;;;14.69;45.76;99539.75;4802522;28;97468;-63
2022/04/08 03:36:08;;;;;;;4.53;3.10;;;14.80;94.60;;;14.64;43.86;99547.19;4824158;28;106652;-63
2022/04/08 03:38:34;;;;;;;6.53;2.90;;;14.80;93.70;;;14.79;46.04;99536.34;4814045;28;122288;-63
2022/04/08 03:41:00;;;;;;;4.70;2.17;;;14.90;94.80;;;14.82;45.79;99543.25;4838566;28;96758;-63
2022/04/08 03:43:30;;;;;;;7.93;2.47;;;14.90;95.00;;;14.74;45.97;99548.22;4821773;28;97169;-62
2022/04/08 03:45:56;;;;;;;6.53;2.80;;;14.80;94.60;;;14.83;46.17;99552.91;4821910;28;97031;-63
2022/04/08 03:48:21;;;;;;;8.07;3.27;;;14.90;95.20;;;14.66;46.40;99551.44;4830831;28;97029;-63
2022/04/08 03:50:47;;;;;;;4.23;2.27;;;14.80;95.00;;;14.72;45.78;99560.75;4820104;28;109238;-63
2022/04/08 03:53:13;;;;;;;5.33;2.20;;;14.90;94.60;;;14.75;46.01;99566.69;4821630;28;107165;-63
2022/04/08 03:55:39;;;;;;;5.00;2.27;;;14.90;95.00;;;14.59;46.44;99577.53;4818839;28;104978;-63
2022/04/08 03:58:05;;;;;;;5.23;2.63;;;14.70;95.10;;;14.52;46.50;99586.03;4823944;28;96880;-63
2022/04/08 04:00:31;;;;;;;5.13;2.20;;;14.60;95.00;;;14.48;46.27;99584.56;4819504;28;113403;-63
2022/04/08 04:02:56;;;;;;;5.77;1.80;;;14.60;95.10;;;14.62;46.82;99586.25;4816817;28;126766;-63
2022/04/08 04:05:22;;;;;;;6.07;3.30;;;14.70;95.40;;;14.54;45.78;99592.06;4820720;29;104666;-63
2022/04/08 04:07:48;;;;;;;5.03;2.83;;;14.70;94.30;;;14.54;46.52;99592.06;4818306;28;120522;-63
2022/04/08 04:10:14;;;;;;;7.00;2.20;;;14.60;94.60;;;14.59;46.41;99598.75;4818828;28;99911;-62
2022/04/08 04:12:42;;;;;;;6.77;2.90;;;14.70;95.00;;;14.36;44.61;99606.56;4827506;28;97273;-63
2022/04/08 04:15:09;;;;;;;5.50;2.50;;;14.40;93.80;;;14.30;46.70;99591.91;4818892;28;97263;-63
2022/04/08 04:17:36;;;;;;;5.73;2.90;;;14.30;95.30;;;14.48;46.60;99606.63;4836596;28;97134;-62
2022/04/08 04:20:02;;;;;;;2.30;1.50;;;14.50;95.20;;;14.35;46.79;99603.06;4822112;29;97289;-62
2022/04/08 04:22:28;;;;;;;5.37;2.43;;;14.30;95.50;;;14.43;47.05;99608.69;4823038;28;97136;-62
2022/04/08 04:24:54;;;;;;;5.27;2.33;;;14.40;95.60;;;14.53;46.30;99608.97;4815782;28;116721;-63
2022/04/08 04:27:20;;;;;;;4.23;2.20;;;14.60;95.30;;;14.40;47.08;99613.38;4825454;28;98663;-63
2022/04/08 04:29:45;;;;;;;8.77;3.17;;;14.30;95.70;;;14.42;44.05;99609.66;4815622;28;97085;-63
2022/04/08 04:32:11;;;;;;;8.27;2.50;;;14.50;93.60;;;14.38;45.96;99610.81;4824620;28;104909;-62
2022/04/08 04:34:38;;;;;;;5.87;2.57;;;14.30;94.90;;;14.51;46.93;99595.81;4816463;28;96837;-63
2022/04/08 04:37:05;;;;;;;6.33;2.50;;;14.30;95.90;;;14.60;46.78;99610.22;4828651;28;97154;-63
2022/04/08 04:39:31;;;;;;;7.20;2.80;;;14.50;95.70;;;14.71;46.48;99606.84;4819719;28;97959;-64
2022/04/08 04:41:58;;;;;;;4.17;2.63;;;14.70;95.40;;;14.46;43.54;99603.19;4801180;28;97628;-63
2022/04/08 04:44:26;;;;;;;4.73;2.53;;;14.60;92.90;;;14.65;46.73;99596.66;4822220;29;97284;-63
2022/04/08 04:46:54;;;;;;;5.13;3.07;;;14.50;95.30;;;14.57;44.80;99594.50;4821436;28;97589;-63
2022/04/08 04:49:19;;;;;;;3.10;1.53;;;14.40;93.90;;;14.63;46.58;99594.09;4816574;29;99294;-63
2022/04/08 04:51:54;;;;;;;6.47;3.10;;;14.40;96.00;;;14.75;46.60;99595.03;4822060;28;104911;-63
2022/04/08 04:54:19;;;;;;;4.00;3.03;;;14.60;94.60;;;14.63;46.49;99603.88;4819913;28;97560;-63
2022/04/08 04:56:46;;;;;;;7.00;4.50;;;14.40;95.50;;;14.54;45.76;99606.19;4821626;28;97178;-63
2022/04/08 04:59:12;;;;;;;3.40;2.20;;;14.30;94.40;;;14.31;47.02;99604.22;4819194;28;97406;-64
2022/04/08 05:01:37;;;;;;;6.53;4.33;;;14.00;95.20;;;14.11;47.21;99597.59;4818280;28;98242;-63
2022/04/08 05:04:05;;;;;;;7.43;4.47;;;13.60;96.10;;;13.85;45.67;99591.38;4818953;28;112538;-63
2022/04/08 05:06:35;;;;;;;8.17;5.50;;;13.50;95.60;;;13.69;47.07;99590.69;4796410;28;97763;-65
2022/04/08 05:09:05;;;;;;;6.97;5.07;;;13.20;96.60;;;13.53;48.30;99590.81;4790709;29;100551;-63
2022/04/08 05:11:31;;;;;;;6.00;3.40;;;13.00;96.80;;;13.46;49.48;99600.13;4823712;28;97058;-64
2022/04/08 05:13:57;;;;;;;5.37;3.77;;;12.80;98.00;;;13.44;49.18;99594.06;4819599;28;97129;-63
2022/04/08 05:16:23;;;;;;;5.60;3.87;;;12.80;98.80;;;13.33;49.30;99600.06;4822845;28;97043;-64
2022/04/08 05:18:49;;;;;;;8.50;4.13;;;12.70;97.90;;;13.30;49.81;99605.53;4814609;28;119720;-63
2022/04/08 05:21:14;;;;;;;10.20;5.97;;;12.70;98.40;;;13.21;49.81;99605.28;4828997;28;108871;-63
2022/04/08 05:23:40;;;;;;;9.03;6.00;;;12.50;98.20;;;13.08;50.03;99605.16;4818712;28;109588;-63
2022/04/08 05:26:06;;;;;;;7.43;5.77;;;12.40;98.50;;;13.25;50.11;99606.78;4823937;28;108630;-63
2022/04/08 05:28:31;;;;;;;7.63;6.37;;;12.60;99.60;;;13.10;50.49;99609.41;4816729;28;122078;-63
2022/04/08 05:30:57;;;;;;;11.47;5.83;;;12.50;98.80;;;13.06;50.38;99617.66;4823742;28;96659;-63
2022/04/08 05:33:23;;;;;;;9.80;6.73;;;12.40;98.50;;;12.98;49.71;99614.63;4824770;28;97003;-63
2022/04/08 05:35:49;;;;;;;9.90;5.83;;;12.30;98.80;;;12.96;50.87;99605.91;4820404;28;98236;-63
2022/04/08 05:38:14;;;;;;;10.87;6.13;;;12.20;99.40;;;13.09;50.50;99612.16;4841848;28;106761;-63
2022/04/08 05:40:41;;;;;;;9.57;6.63;;;12.40;99.50;;;12.96;49.09;99605.91;4826528;28;118178;-63
2022/04/08 05:43:08;;;;;;;6.00;3.63;;;12.30;98.80;;;13.06;51.03;99599.13;4831021;28;97111;-64
2022/04/08 05:45:34;;;;;;;8.30;4.40;;;12.30;99.90;;;13.30;50.55;99605.53;4829791;28;97647;-64
2022/04/08 05:48:08;;;;;;;5.87;4.20;;;12.70;99.60;;;13.56;49.62;99610.97;4817151;28;119906;-64
2022/04/08 05:50:35;;;;;;;4.67;3.60;;;13.20;98.30;;;13.81;48.96;99600.50;4820691;28;96918;-68
2022/04/08 05:53:01;;;;;;;5.87;4.43;;;13.60;98.00;;;14.05;48.78;99613.09;4827937;28;110683;-64
2022/04/08 05:55:27;;;;;;;5.43;4.03;;;13.90;97.20;;;14.27;47.92;99616.84;4829120;28;97362;-63
2022/04/08 05:57:55;;;;;;;7.50;4.70;;;14.30;97.00;;;14.51;47.44;99611.72;4823397;28;97942;-64
2022/04/08 06:00:21;;;;;;;4.80;2.53;;;14.60;96.40;;;14.57;47.25;99611.28;4824226;28;97090;-64
2022/04/08 06:02:48;;;;;;;6.87;4.57;;;14.50;96.20;;;14.75;46.94;99608.31;4818581;28;97083;-64
2022/04/08 06:05:19;;;;;;;6.03;4.63;;;14.70;95.90;;;14.79;46.57;99604.50;4801673;29;97578;-64
2022/04/08 06:07:51;;;;;;;7.23;4.77;;;14.70;95.70;;;14.91;46.10;99603.66;4817427;28;97073;-63
2022/04/08 06:10:18;;;;;;;5.93;3.73;;;14.90;95.50;;;14.95;46.35;99602.47;4823426;28;97978;-64
2022/04/08 06:12:51;;;;;;;8.03;4.37;;;14.90;95.40;;;14.88;46.18;99598.53;4817765;28;96666;-64
2022/04/08 06:15:18;;;;;;;8.97;5.60;;;14.80;95.00;;;14.85;43.39;99593.44;4818656;28;97075;-63
2022/04/08 06:17:44;;;;;;;6.43;4.03;;;14.80;93.70;;;14.80;46.35;99592.94;4818917;28;97836;-64
2022/04/08 06:20:13;;;;;;;9.27;5.53;;;14.60;95.70;;;14.73;44.69;99591.66;4823428;29;97394;-64
2022/04/08 06:22:40;;;;;;;7.97;5.37;;;14.60;93.90;;;14.65;46.03;99599.31;4819909;28;98192;-64
2022/04/08 06:25:12;;;;;;;8.63;5.27;;;14.30;95.60;;;14.64;46.75;99592.31;4819716;29;97055;-64
2022/04/08 06:27:38;;;;;;;8.30;5.10;;;14.30;96.10;;;14.60;46.29;99586.34;4801452;28;98523;-63
2022/04/08 06:30:09;;;;;;;5.63;4.43;;;14.30;95.10;;;14.25;47.25;99580.78;4824327;28;114517;-64
2022/04/08 06:32:37;;;;;;;10.23;5.40;;;13.80;95.80;;;14.08;45.90;99581.06;4831844;28;96660;-64
2022/04/08 06:35:03;;;;;;;4.73;4.13;;;13.60;96.60;;;14.03;47.98;99591.09;4822103;28;97094;-63
2022/04/08 06:37:30;;;;;;;2.97;2.27;;;13.40;97.40;;;13.82;48.46;99586.28;4810375;29;98792;-69
2022/04/08 06:40:02;;;;;;;6.20;5.40;;;13.20;98.00;;;13.66;47.93;99590.88;4819334;28;114725;-64
2022/04/08 06:42:28;;;;;;;8.03;4.80;;;13.00;97.20;;;13.62;49.14;99584.09;4818780;28;97050;-64
2022/04/08 06:44:54;;;;;;;4.40;3.53;;;13.00;98.30;;;13.84;49.04;99589.69;4811873;29;114224;-64
2022/04/08 06:47:19;;;;;;;6.57;4.63;;;13.30;98.50;;;13.95;48.85;99592.47;4818286;28;97194;-64
2022/04/08 06:49:46;;;;;;;4.10;2.77;;;13.50;97.70;;;14.22;47.97;99589.78;4814905;28;109051;-64
2022/04/08 06:52:13;;;;;;;4.63;2.50;;;13.90;97.40;;;14.10;47.86;99590.59;4821341;28;96925;-64
2022/04/08 06:54:40;;;;;;;5.27;3.17;;;13.90;96.80;;;14.19;47.77;99594.47;4817001;28;96930;-63
2022/04/08 06:57:06;;;;;;;6.17;3.07;;;14.00;95.90;;;14.38;47.63;99588.75;4822613;28;101784;-64
2022/04/08 06:59:31;;;;;;;9.13;5.13;;;14.20;96.60;;;14.20;45.76;99591.69;4804192;28;98364;-64
2022/04/08 07:01:57;;;;;;;7.50;4.97;;;14.00;95.00;;;13.87;45.77;99589.47;4826021;28;114254;-64
2022/04/08 07:04:23;;;;;;;11.80;5.10;;;13.60;95.30;;;13.70;46.48;99587.06;4823746;29;98572;-64
2022/04/08 07:06:49;;;;;;;6.50;3.60;;;13.30;96.40;;;13.70;48.65;99587.06;4817400;28;117460;-63
2022/04/08 07:09:14;;;;;;;6.60;4.17;;;13.20;97.50;;;13.62;47.84;99578.78;4824844;28;100854;-64
2022/04/08 07:11:40;;;;;;;5.97;4.10;;;13.30;96.90;;;13.60;48.90;99570.09;4818927;28;110790;-64
2022/04/08 07:14:07;;;;;;;3.63;1.70;;;13.30;97.20;;;13.70;48.68;99571.19;4836261;28;107678;-64
2022/04/08 07:16:32;;;;;;;2.70;1.77;;;13.50;97.50;;;13.87;47.18;99562.97;4821927;28;97000;-64
2022/04/08 07:18:58;;;;;;;6.10;3.60;;;13.80;96.30;;;14.00;48.18;99557.69;4819910;29;96985;-64
2022/04/08 07:21:24;;;;;;;5.67;3.23;;;14.00;96.60;;;14.26;47.51;99555.94;4824085;28;116001;-64
2022/04/08 07:23:50;;;;;;;4.87;4.07;;;14.40;96.00;;;14.33;46.56;99559.88;4820472;28;97663;-64
2022/04/08 07:26:18;;;;;;;5.90;3.70;;;14.50;94.80;;;14.47;47.16;99562.47;4825318;28;97437;-64
2022/04/08 07:28:44;;;;;;;3.60;3.13;;;14.60;95.60;;;14.58;46.85;99567.03;4817334;28;97362;-64
2022/04/08 07:31:10;;;;;;;8.47;4.10;;;14.70;95.60;;;14.63;45.65;99561.41;4825394;28;96804;-64
2022/04/08 07:33:36;;;;;;;4.93;3.23;;;14.80;94.00;;;14.66;46.45;99562.03;4823464;28;96919;-64
2022/04/08 07:36:03;;;;;;;5.40;3.40;;;14.80;94.90;;;14.81;45.62;99565.44;4820302;29;98555;-64
2022/04/08 07:38:29;;;;;;;7.70;4.13;;;14.90;93.60;;;14.68;46.53;99561.94;4827215;28;97021;-70
2022/04/08 07:40:55;;;;;;;5.63;3.63;;;14.60;94.80;;;14.61;44.56;99558.00;4820314;28;124884;-64
2022/04/08 07:43:21;;;;;;;6.07;4.20;;;14.50;93.90;;;14.51;45.90;99568.41;4823172;28;96722;-64
2022/04/08 07:45:46;;;;;;;7.27;4.10;;;14.20;95.30;;;14.14;44.36;99559.41;4823180;28;111178;-64
2022/04/08 07:48:12;;;;;;;4.53;2.73;;;14.10;94.00;;;13.97;47.70;99565.88;4822710;28;96987;-64
2022/04/08 07:50:39;;;;;;;3.53;1.80;;;13.60;96.70;;;14.14;47.63;99564.72;4821278;28;116629;-64
2022/04/08 07:53:06;;;;;;;5.10;3.37;;;13.90;96.40;;;13.99;46.47;99556.00;4821545;29;97327;-64
2022/04/08 07:55:31;;;;;;;5.00;3.53;;;13.80;95.30;;;13.17;46.61;99554.28;4821960;28;97959;-64
2022/04/08 07:57:57;;;;;;;5.77;4.00;;;13.00;95.90;;;12.95;47.13;99561.88;4822821;29;99129;-65
2022/04/08 08:00:28;;;;;;;5.77;3.60;;;12.80;96.60;;;12.89;46.54;99562.28;4823655;28;111643;-57
2022/04/08 08:02:54;;;;;;;4.30;2.03;;;12.60;96.10;;;12.96;49.69;99552.97;4817720;28;96916;-64
2022/04/08 08:05:21;;;;;;;4.17;2.67;;;12.70;98.40;;;13.38;49.44;99555.59;4824662;29;97344;-64
2022/04/08 08:07:50;;;;;;;6.30;2.20;;;13.30;97.70;;;13.61;47.34;99553.25;4834622;28;97137;-64
2022/04/08 08:10:31;;;;;;;2.83;2.03;;;13.70;96.00;;;14.03;47.79;99546.88;4818905;28;96979;-64
2022/04/08 08:13:00;;;;;;;4.00;2.83;;;14.20;95.70;;;14.28;44.95;99556.69;4828285;28;97397;-64
2022/04/08 08:15:26;;;;;;;3.37;1.60;;;14.40;94.10;;;14.47;46.25;99551.88;4827907;28;97040;-64
2022/04/08 08:17:52;;;;;;;4.83;2.27;;;14.60;94.80;;;14.65;45.62;99554.19;4815345;28;98243;-64
2022/04/08 08:20:20;;;;;;;2.83;1.20;;;14.80;94.20;;;14.59;45.45;99553.66;4818529;29;96933;-64
2022/04/08 08:22:47;;;;;;;4.20;2.40;;;14.80;93.90;;;14.72;44.66;99544.84;4819765;28;98512;-61
2022/04/08 08:25:13;;;;;;;9.03;3.07;;;14.90;92.60;;;13.49;45.78;99541.66;4819944;29;96604;-61
2022/04/08 08:27:39;;;;;;;4.87;2.50;;;13.00;94.60;;;13.44;47.40;99542.88;4819873;28;96955;-64
2022/04/08 08:30:10;;;;;;;8.03;2.93;;;13.00;96.20;;;13.77;46.09;99546.00;4823086;29;103139;-64
2022/04/08 08:32:37;;;;;;;5.03;3.03;;;13.60;95.50;;;13.82;46.17;99543.88;4822695;28;96982;-64
2022/04/08 08:35:10;;;;;;;4.60;2.40;;;13.80;94.50;;;14.09;44.58;99541.19;4824176;29;97029;-64
2022/04/08 08:37:36;;;;;;;3.33;1.43;;;14.10;93.90;;;14.22;46.39;99535.91;4824016;28;97134;-64
2022/04/08 08:40:07;;;;;;;5.60;2.10;;;14.30;94.70;;;14.04;43.22;99531.84;4818715;28;120037;-64
2022/04/08 08:42:36;;;;;;;7.73;2.30;;;14.00;92.40;;;14.06;45.03;99536.09;4823990;28;97457;-64
2022/04/08 08:45:04;;;;;;;7.67;2.70;;;14.00;94.40;;;14.28;45.82;99533.66;4838291;28;98941;-64
2022/04/08 08:47:31;;;;;;;4.83;2.67;;;14.30;93.80;;;14.23;44.44;99537.59;4820307;28;98665;-68
2022/04/08 08:49:57;;;;;;;2.77;1.60;;;14.20;93.10;;;14.35;46.13;99531.44;4822656;28;97857;-64
2022/04/08 08:52:24;;;;;;;5.80;2.77;;;14.40;94.70;;;14.32;44.90;99521.06;4824947;28;96748;-63
2022/04/08 08:54:51;;;;;;;3.70;2.37;;;14.40;91.90;;;14.40;44.97;99529.31;4818916;28;98805;-64
2022/04/08 08:57:19;;;;;;;3.17;2.10;;;14.30;93.50;;;14.54;45.02;99526.59;4824631;28;97082;-64
2022/04/08 08:59:46;;;;;;;5.37;2.87;;;14.40;94.50;;;14.22;43.13;99520.84;4820834;28;104292;-64
2022/04/08 09:02:17;;;;;;;6.07;3.00;;;14.20;91.40;;;14.41;44.65;99520.41;4826157;28;97377;-64
2022/04/08 09:04:43;;;;;;;5.30;2.60;;;14.30;94.50;;;14.47;45.17;99509.41;4812743;28;97427;-64
2022/04/08 09:07:27;;;;;;;5.70;2.10;;;14.40;92.80;;;14.64;45.61;99504.72;4823209;28;107495;-64
2022/04/08 09:09:57;;;;;;;3.20;2.00;;;14.50;94.70;;;14.78;45.28;99496.63;4806469;28;96783;-64
2022/04/08 09:12:26;;;;;;;4.30;2.50;;;14.70;94.20;;;14.91;44.93;99497.47;4806185;29;96867;-64
2022/04/08 09:14:55;;;;;;;4.50;2.80;;;14.90;93.90;;;14.94;42.85;99486.63;4823316;28;96917;-64
2022/04/08 09:17:23;;;;;;;8.43;4.03;;;15.00;91.00;;;14.71;40.90;99485.59;4824506;28;96964;-64
2022/04/08 09:19:54;;;;;;;4.17;2.73;;;14.60;91.00;;;14.86;45.23;99483.66;4820081;28;97285;-64
2022/04/08 09:22:20;;;;;;;5.30;2.40;;;14.60;94.50;;;14.94;44.73;99473.34;4821226;29;97546;-63
2022/04/08 09:24:46;;;;;;;4.60;3.43;;;14.80;94.10;;;14.95;44.15;99458.25;4813521;28;99472;-63
2022/04/08 09:27:13;;;;;;;6.40;3.40;;;14.80;92.50;;;15.01;44.56;99461.31;4819879;29;97320;-64
2022/04/08 09:29:43;;;;;;;6.20;3.13;;;14.90;92.90;;;14.86;42.25;99457.94;4816995;28;96986;-64
2022/04/08 09:32:14;;;;;;;5.20;4.17;;;14.70;92.10;;;14.63;43.93;99450.81;4821812;29;102194;-64
2022/04/08 09:34:42;;;;;;;5.30;3.17;;;14.40;92.20;;;14.59;45.31;99442.19;4818628;28;97029;-64
2022/04/08 09:37:12;;;;;;;5.47;3.47;;;14.20;94.40;;;14.41;43.46;99443.47;4819243;29;97093;-63
2022/04/08 09:40:00;;;;;;;6.07;3.40;;;14.10;92.10;;;14.25;43.97;99445.50;4814848;28;96921;-64
2022/04/08 09:42:43;;;;;;;3.93;2.93;;;13.80;92.50;;;14.05;43.38;99438.94;4822368;28;97486;-63
2022/04/08 09:45:10;;;;;;;5.50;3.00;;;13.60;92.50;;;14.27;45.51;99427.69;4818469;28;102967;-64
2022/04/08 09:47:37;;;;;;;10.03;3.03;;;13.90;95.20;;;14.36;45.24;99421.75;4821986;28;97008;-64
2022/04/08 09:50:10;;;;;;;3.93;2.23;;;14.10;93.10;;;14.45;45.70;99421.09;4815355;29;96789;-64
2022/04/08 09:52:41;;;;;;;5.40;2.93;;;14.30;92.60;;;14.48;44.81;99423.56;4822433;28;97281;-63
2022/04/08 09:55:09;;;;;;;7.20;3.00;;;14.30;93.10;;;14.12;41.87;99415.50;4821767;29;119268;-66
2022/04/08 09:57:39;;;;;;;5.30;3.37;;;14.00;91.70;;;13.08;42.00;99419.84;4819338;28;97270;-57
2022/04/08 10:00:07;;;;;;;5.07;3.00;;;12.80;92.30;;;12.64;44.03;99413.00;4822127;28;96986;-62
2022/04/08 10:02:39;;;;;;;4.47;2.83;;;12.30;94.00;;;12.44;45.68;99423.97;4818910;28;97453;-60
2022/04/08 10:05:08;;;;;;;3.70;2.27;;;12.20;94.90;;;12.62;50.55;99422.81;4820786;29;97246;-65
2022/04/08 10:07:36;;;;;;;2.53;1.13;;;12.20;96.60;;;12.89;50.01;99427.31;4821456;28;97347;-64
2022/04/08 10:10:26;;;;;;;2.70;1.70;;;12.50;97.20;;;13.07;47.64;99423.44;4822941;29;96939;-64
2022/04/08 10:13:30;;;;;;;4.30;1.40;;;12.70;95.60;;;13.26;48.27;99421.31;4818943;28;96914;-64
2022/04/08 10:16:17;;;;;;;4.53;3.13;;;12.80;95.90;;;13.30;48.23;99429.91;4834978;28;101623;-63
2022/04/08 10:18:44;;;;;;;2.23;1.83;;;12.90;95.40;;;13.35;45.89;99427.81;4818714;28;97280;-63